createdAt,value
2018-11-28T00:00:33.873Z,1.10
2018-11-28T00:03:04.400Z,1.10
2018-11-28T00:05:32.933Z,1.00
2018-11-28T00:08:01.404Z,1.00
2018-11-28T00:10:30.322Z,1.00
2018-11-28T00:12:58.871Z,1.00
2018-11-28T00:15:28.694Z,1.00
2018-11-28T00:17:57.729Z,1.00
2018-11-28T00:20:26.284Z,1.00
2018-11-28T00:22:55.185Z,1.00
2018-11-28T00:25:23.794Z,0.90
2018-11-28T00:27:52.583Z,0.90
2018-11-28T00:30:24.387Z,0.80
2018-11-28T00:32:53.038Z,0.80
2018-11-28T00:35:22.647Z,0.80
2018-11-28T00:37:51.644Z,0.70
2018-11-28T00:40:21.494Z,0.70
2018-11-28T00:42:50.395Z,0.60
2018-11-28T00:45:20.701Z,0.60
2018-11-28T00:47:49.224Z,0.60
2018-11-28T00:50:21.950Z,0.50
2018-11-28T00:52:50.476Z,0.50
2018-11-28T00:55:19.683Z,0.50
2018-11-28T00:57:48.282Z,0.50
2018-11-28T01:00:19.297Z,0.50
2018-11-28T01:02:48.376Z,0.50
2018-11-28T01:05:17.094Z,0.50
2018-11-28T01:07:46.809Z,0.50
2018-11-28T01:10:18.057Z,0.40
2018-11-28T01:12:46.768Z,0.40
2018-11-28T01:15:16.316Z,0.40
2018-11-28T01:17:44.912Z,0.40
2018-11-28T01:20:16.777Z,0.40
2018-11-28T01:22:45.401Z,0.40
2018-11-28T01:25:15.177Z,0.40
2018-11-28T01:27:44.067Z,0.40
2018-11-28T01:30:13.705Z,0.40
2018-11-28T01:32:42.307Z,0.40
2018-11-28T01:35:11.803Z,0.40
2018-11-28T01:37:40.990Z,0.50
2018-11-28T01:40:25.083Z,0.50
2018-11-28T01:42:53.931Z,0.50
2018-11-28T01:45:23.436Z,0.50
2018-11-28T01:47:51.951Z,0.50
2018-11-28T01:50:21.540Z,0.50
2018-11-28T01:52:50.371Z,0.60
2018-11-28T01:55:20.340Z,0.50
2018-11-28T01:57:48.994Z,0.50
2018-11-28T02:00:19.501Z,0.50
2018-11-28T02:02:49.334Z,0.40
2018-11-28T02:05:17.837Z,0.40
2018-11-28T02:07:46.380Z,0.30
2018-11-28T02:10:15.852Z,0.30
2018-11-28T02:12:44.469Z,0.30
2018-11-28T02:15:15.059Z,0.30
2018-11-28T02:17:43.689Z,0.10
2018-11-28T02:20:14.291Z,0.10
2018-11-28T02:22:42.867Z,0.00
2018-11-28T02:25:12.560Z,0.00
2018-11-28T02:27:41.328Z,-0.10
2018-11-28T02:30:18.010Z,-0.20
2018-11-28T02:32:47.667Z,-0.20
2018-11-28T02:35:17.132Z,-0.20
2018-11-28T02:37:45.687Z,-0.30
2018-11-28T02:40:15.250Z,-0.30
2018-11-28T02:42:44.396Z,-0.20
2018-11-28T02:45:17.682Z,-0.30
2018-11-28T02:47:46.227Z,-0.20
2018-11-28T02:50:15.085Z,-0.20
2018-11-28T02:52:43.877Z,-0.20
2018-11-28T02:55:13.491Z,-0.20
2018-11-28T02:57:43.195Z,-0.20
2018-11-28T03:00:14.202Z,-0.20
2018-11-28T03:02:42.790Z,-0.20
2018-11-28T03:05:12.346Z,-0.20
2018-11-28T03:07:41.011Z,-0.20
2018-11-28T03:10:18.832Z,-0.20
2018-11-28T03:12:47.401Z,-0.20
2018-11-28T03:15:26.899Z,-0.20
2018-11-28T03:17:55.826Z,-0.20
2018-11-28T03:20:24.684Z,-0.30
2018-11-28T03:22:53.829Z,-0.30
2018-11-28T03:25:22.439Z,-0.30
2018-11-28T03:27:51.068Z,-0.30
2018-11-28T03:30:20.073Z,-0.30
2018-11-28T03:32:48.700Z,-0.30
2018-11-28T03:35:17.246Z,-0.30
2018-11-28T03:37:45.888Z,-0.30
2018-11-28T03:40:14.576Z,-0.30
2018-11-28T03:42:43.573Z,-0.30
2018-11-28T03:45:13.265Z,-0.30
2018-11-28T03:47:42.899Z,-0.30
2018-11-28T03:50:12.381Z,-0.30
2018-11-28T03:52:40.891Z,-0.40
2018-11-28T03:55:16.334Z,-0.40
2018-11-28T03:57:46.053Z,-0.40
2018-11-28T04:00:15.679Z,-0.40
2018-11-28T04:02:44.354Z,-0.50
2018-11-28T04:05:13.280Z,-0.50
2018-11-28T04:07:41.900Z,-0.50
2018-11-28T04:10:11.836Z,-0.60
2018-11-28T04:12:40.972Z,-0.60
2018-11-28T04:15:12.261Z,-0.60
2018-11-28T04:17:41.153Z,-0.60
2018-11-28T04:20:11.451Z,-0.60
2018-11-28T04:22:40.455Z,-0.60
2018-11-28T04:25:10.248Z,-0.60
2018-11-28T04:27:38.812Z,-0.70
2018-11-28T04:30:16.627Z,-0.70
2018-11-28T04:32:45.637Z,-0.70
2018-11-28T04:35:14.676Z,-0.70
2018-11-28T04:37:44.118Z,-0.70
2018-11-28T04:40:13.954Z,-0.70
2018-11-28T04:42:42.666Z,-0.70
2018-11-28T04:45:13.488Z,-0.70
2018-11-28T04:47:42.458Z,-0.70
2018-11-28T04:50:12.205Z,-0.60
2018-11-28T04:52:40.782Z,-0.60
2018-11-28T04:55:14.415Z,-0.60
2018-11-28T04:57:43.303Z,-0.50
2018-11-28T05:00:13.934Z,-0.50
2018-11-28T05:02:42.813Z,-0.50
2018-11-28T05:05:11.705Z,-0.40
2018-11-28T05:07:41.093Z,-0.40
2018-11-28T05:10:10.821Z,-0.40
2018-11-28T05:12:39.425Z,-0.40
2018-11-28T05:15:12.092Z,-0.40
2018-11-28T05:17:40.790Z,-0.40
2018-11-28T05:20:12.593Z,-0.40
2018-11-28T05:22:41.144Z,-0.40
2018-11-28T05:25:19.532Z,-0.30
2018-11-28T05:27:48.528Z,-0.40
2018-11-28T05:30:18.129Z,-0.40
2018-11-28T05:32:46.705Z,-0.40
2018-11-28T05:35:17.420Z,-0.30
2018-11-28T05:37:46.070Z,-0.30
2018-11-28T05:40:20.832Z,-0.30
2018-11-28T05:42:49.417Z,-0.30
2018-11-28T05:45:18.309Z,-0.30
2018-11-28T05:47:46.845Z,-0.30
2018-11-28T05:50:16.463Z,-0.30
2018-11-28T05:52:45.415Z,-0.30
2018-11-28T05:55:14.670Z,-0.30
2018-11-28T05:57:44.104Z,-0.20
2018-11-28T06:00:20.225Z,-0.20
2018-11-28T06:02:49.016Z,-0.20
2018-11-28T06:05:17.605Z,-0.20
2018-11-28T06:07:46.383Z,-0.20
2018-11-28T06:10:15.305Z,-0.20
2018-11-28T06:12:44.207Z,-0.20
2018-11-28T06:15:13.217Z,-0.20
2018-11-28T06:17:41.747Z,-0.20
2018-11-28T06:20:11.736Z,-0.20
2018-11-28T06:22:40.343Z,-0.20
2018-11-28T06:25:16.122Z,-0.20
2018-11-28T06:27:41.084Z,-0.20
2018-11-28T06:30:16.644Z,-0.20
2018-11-28T06:32:51.012Z,-0.20
2018-11-28T06:35:14.244Z,-0.20
2018-11-28T06:37:43.412Z,-0.20
2018-11-28T06:40:13.744Z,-0.20
2018-11-28T06:42:42.625Z,-0.30
2018-11-28T06:45:12.340Z,-0.30
2018-11-28T06:47:41.570Z,-0.20
2018-11-28T06:50:19.351Z,-0.20
2018-11-28T06:52:48.962Z,-0.20
2018-11-28T06:55:18.525Z,-0.20
2018-11-28T06:57:47.057Z,-0.20
2018-11-28T07:00:17.401Z,-0.20
2018-11-28T07:02:46.367Z,-0.20
2018-11-28T07:05:15.290Z,-0.20
2018-11-28T07:07:43.918Z,-0.20
2018-11-28T07:10:14.648Z,-0.10
2018-11-28T07:12:43.575Z,-0.10
2018-11-28T07:15:13.445Z,-0.10
2018-11-28T07:17:42.928Z,0.00
2018-11-28T07:20:13.511Z,0.00
2018-11-28T07:22:42.155Z,0.10
2018-11-28T07:25:13.977Z,0.10
2018-11-28T07:27:45.339Z,0.20
2018-11-28T07:30:19.099Z,0.20
2018-11-28T07:32:48.363Z,0.30
2018-11-28T07:35:17.004Z,0.40
2018-11-28T07:37:46.218Z,0.50
2018-11-28T07:40:21.110Z,0.50
2018-11-28T07:42:53.068Z,0.60
2018-11-28T07:45:21.917Z,0.80
2018-11-28T07:47:50.423Z,0.90
2018-11-28T07:50:18.949Z,0.90
2018-11-28T07:52:47.839Z,1.00
2018-11-28T07:55:16.643Z,1.10
2018-11-28T07:57:45.181Z,1.10
2018-11-28T08:00:14.859Z,1.10
2018-11-28T08:02:44.555Z,1.20
2018-11-28T08:05:13.561Z,1.20
2018-11-28T08:07:42.147Z,1.20
2018-11-28T08:10:19.462Z,1.20
2018-11-28T08:12:48.773Z,1.20
2018-11-28T08:15:17.286Z,1.30
2018-11-28T08:17:46.108Z,1.30
2018-11-28T08:20:14.674Z,1.40
2018-11-28T08:22:43.347Z,1.40
2018-11-28T08:25:14.165Z,1.40
2018-11-28T08:27:43.855Z,1.30
2018-11-28T08:30:19.821Z,1.20
2018-11-28T08:32:47.465Z,1.10
2018-11-28T08:35:16.079Z,0.90
2018-11-28T08:37:44.607Z,0.90
2018-11-28T08:40:18.333Z,0.90
2018-11-28T08:42:46.898Z,0.90
2018-11-28T08:45:17.459Z,0.90
2018-11-28T08:47:47.228Z,1.00
2018-11-28T08:50:18.032Z,1.10
2018-11-28T08:52:46.551Z,1.10
2018-11-28T08:55:15.214Z,1.30
2018-11-28T08:57:43.781Z,1.40
2018-11-28T09:00:13.669Z,1.60
2018-11-28T09:02:42.333Z,1.60
2018-11-28T09:05:12.528Z,1.70
2018-11-28T09:07:41.135Z,1.70
2018-11-28T09:10:14.195Z,1.80
2018-11-28T09:12:43.744Z,1.80
2018-11-28T09:15:31.402Z,1.70
2018-11-28T09:17:59.537Z,1.70
2018-11-28T09:20:28.227Z,1.60
2018-11-28T09:22:56.740Z,1.50
2018-11-28T09:25:25.280Z,1.50
2018-11-28T09:27:55.983Z,1.60
2018-11-28T09:30:24.625Z,1.70
2018-11-28T09:32:53.312Z,1.80
2018-11-28T09:35:22.759Z,1.90
2018-11-28T09:37:51.408Z,1.90
2018-11-28T09:40:26.933Z,1.90
2018-11-28T09:42:59.143Z,1.90
2018-11-28T09:45:27.978Z,2.00
2018-11-28T09:47:56.520Z,1.90
2018-11-28T09:50:26.114Z,2.00
2018-11-28T09:52:54.815Z,2.20
2018-11-28T09:55:25.259Z,2.50
2018-11-28T09:57:54.237Z,2.70
2018-11-28T10:00:24.869Z,3.10
2018-11-28T10:02:55.274Z,3.40
2018-11-28T10:05:25.020Z,3.30
2018-11-28T10:07:53.574Z,3.10
2018-11-28T10:10:22.112Z,3.00
2018-11-28T10:12:50.686Z,3.30
2018-11-28T10:15:21.331Z,3.70
2018-11-28T10:17:50.015Z,4.00
2018-11-28T10:20:19.206Z,4.50
2018-11-28T10:22:49.670Z,4.60
2018-11-28T10:25:22.988Z,4.40
2018-11-28T10:27:53.766Z,4.10
2018-11-28T10:30:27.493Z,3.80
2018-11-28T10:32:56.289Z,3.50
2018-11-28T10:35:25.246Z,3.20
2018-11-28T10:37:54.509Z,3.00
2018-11-28T10:40:23.810Z,2.80
2018-11-28T10:42:53.631Z,2.70
2018-11-28T10:45:23.711Z,2.70
2018-11-28T10:47:52.327Z,2.60
2018-11-28T10:50:20.894Z,2.40
2018-11-28T10:52:49.514Z,2.40
2018-11-28T10:55:19.134Z,2.30
2018-11-28T10:57:47.763Z,2.30
2018-11-28T11:00:28.790Z,2.30
2018-11-28T11:03:03.062Z,2.20
2018-11-28T11:05:36.932Z,2.30
2018-11-28T11:08:11.280Z,2.30
2018-11-28T11:10:45.076Z,2.20
2018-11-28T11:13:19.839Z,2.20
2018-11-28T11:15:54.036Z,2.10
2018-11-28T11:18:22.637Z,2.10
2018-11-28T11:20:51.241Z,2.10
2018-11-28T11:23:19.966Z,2.10
2018-11-28T11:25:48.791Z,2.10
2018-11-28T11:28:17.499Z,2.10
2018-11-28T11:30:46.125Z,2.10
2018-11-28T11:33:15.128Z,2.10
2018-11-28T11:35:43.816Z,2.10
2018-11-28T11:38:12.447Z,2.10
2018-11-28T11:40:41.158Z,2.10
2018-11-28T11:43:10.451Z,2.10
2018-11-28T11:45:39.713Z,2.10
2018-11-28T11:48:07.922Z,2.10
2018-11-28T11:50:36.480Z,2.10
2018-11-28T11:53:05.444Z,2.10
2018-11-28T11:55:34.187Z,2.10
2018-11-28T11:58:02.606Z,2.20
2018-11-28T12:00:31.233Z,2.10
2018-11-28T12:03:07.038Z,2.10
2018-11-28T12:05:35.742Z,2.10
2018-11-28T12:08:04.584Z,2.10
2018-11-28T12:10:33.151Z,2.10
2018-11-28T12:13:01.676Z,2.10
2018-11-28T12:15:30.274Z,2.10
2018-11-28T12:17:58.880Z,2.20
2018-11-28T12:21:32.317Z,2.20
2018-11-28T12:24:00.919Z,2.20
2018-11-28T12:26:29.471Z,2.10
2018-11-28T12:28:58.109Z,2.10
2018-11-28T12:31:26.825Z,2.10
2018-11-28T12:33:55.491Z,2.10
2018-11-28T12:36:24.017Z,2.10
2018-11-28T12:38:52.767Z,2.10
2018-11-28T12:41:21.303Z,2.10
2018-11-28T12:43:49.883Z,2.10
2018-11-28T12:46:18.628Z,2.20
2018-11-28T12:48:47.244Z,2.20
2018-11-28T12:51:15.913Z,2.10
2018-11-28T12:53:44.462Z,2.10
2018-11-28T12:56:13.180Z,2.10
2018-11-28T12:58:41.690Z,2.00
2018-11-28T13:01:10.270Z,2.00
2018-11-28T13:03:38.806Z,2.00
2018-11-28T13:06:07.363Z,2.00
2018-11-28T13:08:38.703Z,1.90
2018-11-28T13:11:08.251Z,1.90
2018-11-28T13:13:37.055Z,1.90
2018-11-28T13:16:06.383Z,1.90
2018-11-28T13:18:35.025Z,1.90
2018-11-28T13:21:03.630Z,1.90
2018-11-28T13:23:32.164Z,1.80
2018-11-28T13:26:00.693Z,1.80
2018-11-28T13:28:29.347Z,1.80
2018-11-28T13:30:57.933Z,1.80
2018-11-28T13:33:26.449Z,1.80
2018-11-28T13:35:55.012Z,1.70
2018-11-28T13:38:23.925Z,1.70
2018-11-28T13:40:52.792Z,1.80
2018-11-28T13:43:21.419Z,1.70
2018-11-28T13:45:50.382Z,1.70
2018-11-28T13:48:18.988Z,1.70
2018-11-28T13:50:47.559Z,1.70
2018-11-28T13:53:17.350Z,1.60
2018-11-28T13:56:57.074Z,1.60
2018-11-28T13:58:25.100Z,1.60
2018-11-28T14:00:53.693Z,1.60
2018-11-28T14:03:23.264Z,1.50
2018-11-28T14:05:51.929Z,1.50
2018-11-28T14:08:20.689Z,1.50
2018-11-28T14:10:49.290Z,1.40
2018-11-28T14:13:17.912Z,1.40
2018-11-28T14:15:46.824Z,1.40
2018-11-28T14:18:17.702Z,1.40
2018-11-28T14:20:46.455Z,1.40
2018-11-28T14:23:15.031Z,1.30
2018-11-28T14:25:43.612Z,1.40
2018-11-28T14:28:12.843Z,1.30
2018-11-28T14:30:41.431Z,1.30
2018-11-28T14:33:09.973Z,1.30
2018-11-28T14:35:38.621Z,1.30
2018-11-28T14:38:07.148Z,1.30
2018-11-28T14:40:36.028Z,1.30
2018-11-28T14:43:04.845Z,1.20
2018-11-28T14:45:33.699Z,1.20
2018-11-28T14:48:02.299Z,1.10
2018-11-28T14:50:30.867Z,1.10
2018-11-28T14:53:01.614Z,1.00
2018-11-28T14:55:31.448Z,1.00
2018-11-28T14:58:00.123Z,1.00
2018-11-28T15:00:29.976Z,1.00
2018-11-28T15:03:05.284Z,0.90
2018-11-28T15:06:41.272Z,0.90
2018-11-28T15:09:15.865Z,0.90
2018-11-28T15:11:44.960Z,0.90
2018-11-28T15:14:13.916Z,0.80
2018-11-28T15:16:42.525Z,0.80
2018-11-28T15:19:11.053Z,0.80
2018-11-28T15:21:39.843Z,0.80
2018-11-28T15:24:08.472Z,0.80
2018-11-28T15:26:37.131Z,0.80
2018-11-28T15:29:06.389Z,0.80
2018-11-28T15:31:35.044Z,0.80
2018-11-28T15:34:03.705Z,0.80
2018-11-28T15:38:59.651Z,0.80
2018-11-28T15:41:28.566Z,0.70
2018-11-28T15:43:58.219Z,0.70
2018-11-28T15:46:26.802Z,0.60
2018-11-28T15:48:55.451Z,0.60
2018-11-28T15:51:24.023Z,0.60
2018-11-28T15:53:52.657Z,0.60
2018-11-28T15:56:21.326Z,0.60
2018-11-28T15:58:50.528Z,0.60
2018-11-28T16:01:19.228Z,0.60
2018-11-28T16:03:47.812Z,0.60
2018-11-28T16:06:16.394Z,0.60
2018-11-28T16:08:45.416Z,0.60
2018-11-28T16:11:17.049Z,0.60
2018-11-28T16:13:45.610Z,0.60
2018-11-28T16:16:14.216Z,0.60
2018-11-28T16:18:43.643Z,0.60
2018-11-28T16:21:12.408Z,0.60
2018-11-28T16:23:41.782Z,0.60
2018-11-28T16:26:10.359Z,0.60
2018-11-28T16:28:39.028Z,0.60
2018-11-28T16:31:07.678Z,0.60
2018-11-28T16:33:36.227Z,0.60
2018-11-28T16:36:04.853Z,0.60
2018-11-28T16:38:33.471Z,0.60
2018-11-28T16:41:02.052Z,0.50
2018-11-28T16:43:30.602Z,0.60
2018-11-28T16:45:59.383Z,0.50
2018-11-28T16:48:28.040Z,0.60
2018-11-28T16:50:56.956Z,0.50
2018-11-28T16:53:26.040Z,0.50
2018-11-28T16:55:54.902Z,0.50
2018-11-28T16:58:23.903Z,0.60
2018-11-28T17:00:52.592Z,0.60
2018-11-28T17:03:21.198Z,0.60
2018-11-28T17:05:50.086Z,0.60
2018-11-28T17:08:19.086Z,0.60
2018-11-28T17:10:47.685Z,0.60
2018-11-28T17:13:16.467Z,0.60
2018-11-28T17:15:45.292Z,0.60
2018-11-28T17:18:13.995Z,0.60
2018-11-28T17:20:44.601Z,0.60
2018-11-28T17:23:13.265Z,0.60
2018-11-28T17:25:42.029Z,0.60
2018-11-28T17:28:10.682Z,0.60
2018-11-28T17:30:39.858Z,0.60
2018-11-28T17:33:09.059Z,0.60
2018-11-28T17:35:37.868Z,0.60
2018-11-28T17:38:07.347Z,0.60
2018-11-28T17:40:36.357Z,0.60
2018-11-28T17:43:05.371Z,0.60
2018-11-28T17:45:34.133Z,0.60
2018-11-28T17:48:03.151Z,0.60
2018-11-28T17:50:31.827Z,0.60
2018-11-28T17:53:15.591Z,0.60
2018-11-28T17:55:52.631Z,0.60
2018-11-28T17:58:21.737Z,0.60
2018-11-28T18:00:50.922Z,0.60
2018-11-28T18:03:20.261Z,0.70
2018-11-28T18:05:50.238Z,0.70
2018-11-28T18:08:19.428Z,0.60
2018-11-28T18:10:48.324Z,0.60
2018-11-28T18:13:18.049Z,0.60
2018-11-28T18:15:49.540Z,0.60
2018-11-28T18:18:19.700Z,0.60
2018-11-28T18:20:50.395Z,0.70
2018-11-28T18:23:17.150Z,0.70
2018-11-28T18:25:46.570Z,0.60
2018-11-28T18:28:16.322Z,0.60
2018-11-28T18:30:45.422Z,0.70
2018-11-28T18:33:14.877Z,0.70
2018-11-28T18:35:43.886Z,0.70
2018-11-28T18:38:13.023Z,0.70
2018-11-28T18:40:42.026Z,0.70
2018-11-28T18:43:11.271Z,0.70
2018-11-28T18:45:48.454Z,0.70
2018-11-28T18:48:17.164Z,0.70
2018-11-28T18:50:46.174Z,0.70
2018-11-28T18:53:15.317Z,0.60
2018-11-28T18:55:44.226Z,0.60
2018-11-28T18:58:13.890Z,0.60
2018-11-28T19:00:42.900Z,0.60
2018-11-28T19:03:11.759Z,0.50
2018-11-28T19:05:40.699Z,0.60
2018-11-28T19:08:10.100Z,0.50
2018-11-28T19:10:39.688Z,0.60
2018-11-28T19:13:08.760Z,0.60
2018-11-28T19:15:37.664Z,0.60
2018-11-28T19:18:07.357Z,0.60
2018-11-28T19:20:37.643Z,0.60
2018-11-28T19:23:06.828Z,0.60
2018-11-28T19:25:35.947Z,0.60
2018-11-28T19:28:05.103Z,0.50
2018-11-28T19:30:39.927Z,0.50
2018-11-28T19:33:11.060Z,0.60
2018-11-28T19:35:40.816Z,0.60
2018-11-28T19:38:12.471Z,0.60
2018-11-28T19:40:50.573Z,0.60
2018-11-28T19:43:20.178Z,0.60
2018-11-28T19:45:49.126Z,0.60
2018-11-28T19:48:18.306Z,0.60
2018-11-28T19:50:48.854Z,0.60
2018-11-28T19:53:18.176Z,0.50
2018-11-28T19:55:47.176Z,0.50
2018-11-28T19:58:16.523Z,0.50
2018-11-28T20:00:46.421Z,0.50
2018-11-28T20:03:16.600Z,0.40
2018-11-28T20:05:47.171Z,0.50
2018-11-28T20:08:17.188Z,0.40
2018-11-28T20:10:46.865Z,0.40
2018-11-28T20:13:16.543Z,0.40
2018-11-28T20:15:47.967Z,0.40
2018-11-28T20:18:17.906Z,0.40
2018-11-28T20:20:47.569Z,0.40
2018-11-28T20:23:16.944Z,0.40
2018-11-28T20:25:46.407Z,0.40
2018-11-28T20:28:15.544Z,0.40
2018-11-28T20:30:45.883Z,0.40
2018-11-28T20:33:16.636Z,0.30
2018-11-28T20:35:47.032Z,0.30
2018-11-28T20:38:26.024Z,0.30
2018-11-28T20:40:55.202Z,0.30
2018-11-28T20:43:24.829Z,0.30
2018-11-28T20:45:54.007Z,0.30
2018-11-28T20:48:23.933Z,0.30
2018-11-28T20:50:53.451Z,0.30
2018-11-28T20:53:23.255Z,0.30
2018-11-28T20:55:52.359Z,0.30
2018-11-28T20:58:21.801Z,0.30
2018-11-28T21:00:51.032Z,0.20
2018-11-28T21:03:22.206Z,0.20
2018-11-28T21:05:51.922Z,0.20
2018-11-28T21:08:21.347Z,0.20
2018-11-28T21:10:50.914Z,0.20
2018-11-28T21:13:20.070Z,0.10
2018-11-28T21:15:49.670Z,0.10
2018-11-28T21:18:19.223Z,0.10
2018-11-28T21:20:49.005Z,0.00
2018-11-28T21:23:19.196Z,0.00
2018-11-28T21:25:48.548Z,0.10
2018-11-28T21:28:17.580Z,0.10
2018-11-28T21:30:46.646Z,0.00
2018-11-28T21:33:15.795Z,0.00
2018-11-28T21:35:48.283Z,0.00
2018-11-28T21:38:17.888Z,0.00
2018-11-28T21:40:51.804Z,0.00
2018-11-28T21:43:20.506Z,-0.10
2018-11-28T21:45:49.194Z,-0.10
2018-11-28T21:48:17.839Z,-0.10
2018-11-28T21:50:46.599Z,-0.10
2018-11-28T21:53:15.662Z,-0.10
2018-11-28T21:55:44.299Z,-0.10
2018-11-28T21:58:14.052Z,-0.10
2018-11-28T22:00:42.755Z,-0.20
2018-11-28T22:03:11.749Z,-0.20
2018-11-28T22:05:40.421Z,-0.20
2018-11-28T22:08:09.534Z,-0.20
2018-11-28T22:10:38.172Z,-0.20
2018-11-28T22:13:06.802Z,-0.10
2018-11-28T22:15:35.386Z,-0.10
2018-11-28T22:18:03.993Z,-0.20
2018-11-28T22:20:32.578Z,-0.20
2018-11-28T22:23:01.914Z,-0.10
2018-11-28T22:25:30.507Z,-0.10
2018-11-28T22:27:59.109Z,-0.10
2018-11-28T22:30:28.872Z,-0.20
2018-11-28T22:32:58.180Z,-0.20
2018-11-28T22:35:27.482Z,-0.20
2018-11-28T22:37:56.291Z,-0.30
2018-11-28T22:40:30.323Z,-0.30
2018-11-28T22:42:59.178Z,-0.30
2018-11-28T22:45:29.175Z,-0.30
2018-11-28T22:47:58.015Z,-0.30
2018-11-28T22:50:26.882Z,-0.30
2018-11-28T22:52:56.677Z,-0.30
2018-11-28T22:55:25.900Z,-0.30
2018-11-28T23:00:39.961Z,-0.30
2018-11-28T23:03:09.947Z,-0.30
2018-11-28T23:05:41.147Z,-0.20
2018-11-28T23:08:10.931Z,-0.30
2018-11-28T23:10:39.933Z,-0.30
2018-11-28T23:13:10.162Z,-0.30
2018-11-28T23:15:39.003Z,-0.40
2018-11-28T23:18:08.976Z,-0.40
2018-11-28T23:20:37.756Z,-0.40
2018-11-28T23:23:07.465Z,-0.40
2018-11-28T23:25:36.487Z,-0.40
2018-11-28T23:28:05.100Z,-0.50
2018-11-28T23:30:33.949Z,-0.50
2018-11-28T23:33:03.207Z,-0.50
2018-11-28T23:35:32.120Z,-0.50
2018-11-28T23:38:01.049Z,-0.50
2018-11-28T23:40:29.598Z,-0.50
2018-11-28T23:42:58.377Z,-0.50
2018-11-28T23:45:27.318Z,-0.50
2018-11-28T23:47:56.228Z,-0.60
2018-11-28T23:50:25.973Z,-0.60
2018-11-28T23:52:55.472Z,-0.60
2018-11-28T23:55:29.119Z,-0.60
2018-11-28T23:57:57.797Z,-0.60
